sensor_id;sensor_type;location;lat;lon;timestamp;P1;durP1;ratioP1;P2;durP2;ratioP2
5559;SDS011;2803;47.916;8.074;2023-03-01T00:00:06;31.93;;;15.40;;
5559;SDS011;2803;47.916;8.074;2023-03-01T00:02:37;29.47;;;14.87;;
5559;SDS011;2803;47.916;8.074;2023-03-01T00:05:07;29.60;;;14.00;;
5559;SDS011;2803;47.916;8.074;2023-03-01T00:07:34;27.50;;;14.57;;
5559;SDS011;2803;47.916;8.074;2023-03-01T00:10:00;28.30;;;14.13;;
5559;SDS011;2803;47.916;8.074;2023-03-01T00:12:27;29.83;;;16.23;;
5559;SDS011;2803;47.916;8.074;2023-03-01T00:14:54;30.40;;;15.87;;
5559;SDS011;2803;47.916;8.074;2023-03-01T00:17:22;36.63;;;16.80;;
5559;SDS011;2803;47.916;8.074;2023-03-01T00:19:51;36.67;;;17.20;;
5559;SDS011;2803;47.916;8.074;2023-03-01T00:22:17;33.30;;;15.73;;
5559;SDS011;2803;47.916;8.074;2023-03-01T00:24:44;32.83;;;16.50;;
5559;SDS011;2803;47.916;8.074;2023-03-01T00:27:11;33.03;;;16.53;;
5559;SDS011;2803;47.916;8.074;2023-03-01T00:29:37;29.70;;;16.87;;
5559;SDS011;2803;47.916;8.074;2023-03-01T00:32:04;29.07;;;16.00;;
5559;SDS011;2803;47.916;8.074;2023-03-01T00:34:31;38.90;;;17.53;;
5559;SDS011;2803;47.916;8.074;2023-03-01T00:37:00;29.87;;;15.90;;
5559;SDS011;2803;47.916;8.074;2023-03-01T00:39:30;32.97;;;16.60;;
5559;SDS011;2803;47.916;8.074;2023-03-01T00:41:57;36.40;;;17.13;;
5559;SDS011;2803;47.916;8.074;2023-03-01T00:44:25;30.50;;;15.80;;
5559;SDS011;2803;47.916;8.074;2023-03-01T00:46:53;35.67;;;18.30;;
5559;SDS011;2803;47.916;8.074;2023-03-01T00:49:19;31.07;;;16.30;;
5559;SDS011;2803;47.916;8.074;2023-03-01T00:51:46;32.37;;;15.67;;
5559;SDS011;2803;47.916;8.074;2023-03-01T00:54:14;34.50;;;16.10;;
5559;SDS011;2803;47.916;8.074;2023-03-01T00:56:41;36.77;;;18.10;;
5559;SDS011;2803;47.916;8.074;2023-03-01T00:59:07;40.60;;;19.07;;
5559;SDS011;2803;47.916;8.074;2023-03-01T01:01:34;34.23;;;16.10;;
5559;SDS011;2803;47.916;8.074;2023-03-01T01:04:02;35.53;;;17.40;;
5559;SDS011;2803;47.916;8.074;2023-03-01T01:06:30;30.07;;;15.30;;
5559;SDS011;2803;47.916;8.074;2023-03-01T01:08:58;35.03;;;16.80;;
5559;SDS011;2803;47.916;8.074;2023-03-01T01:11:28;33.60;;;17.90;;
5559;SDS011;2803;47.916;8.074;2023-03-01T01:13:55;34.93;;;18.50;;
5559;SDS011;2803;47.916;8.074;2023-03-01T01:16:23;30.60;;;16.23;;
5559;SDS011;2803;47.916;8.074;2023-03-01T01:18:52;33.83;;;16.97;;
5559;SDS011;2803;47.916;8.074;2023-03-01T01:21:20;32.67;;;17.40;;
5559;SDS011;2803;47.916;8.074;2023-03-01T01:23:49;34.70;;;17.47;;
5559;SDS011;2803;47.916;8.074;2023-03-01T01:26:17;33.87;;;16.47;;
5559;SDS011;2803;47.916;8.074;2023-03-01T01:28:48;33.00;;;16.70;;
5559;SDS011;2803;47.916;8.074;2023-03-01T01:31:15;34.23;;;17.40;;
5559;SDS011;2803;47.916;8.074;2023-03-01T01:33:44;34.50;;;17.33;;
5559;SDS011;2803;47.916;8.074;2023-03-01T01:36:12;37.60;;;18.47;;
5559;SDS011;2803;47.916;8.074;2023-03-01T01:38:39;41.20;;;19.23;;
5559;SDS011;2803;47.916;8.074;2023-03-01T01:41:07;36.97;;;19.20;;
5559;SDS011;2803;47.916;8.074;2023-03-01T01:43:37;31.07;;;17.57;;
5559;SDS011;2803;47.916;8.074;2023-03-01T01:46:10;37.47;;;19.00;;
5559;SDS011;2803;47.916;8.074;2023-03-01T01:48:46;38.73;;;20.27;;
5559;SDS011;2803;47.916;8.074;2023-03-01T01:51:18;36.90;;;18.63;;
5559;SDS011;2803;47.916;8.074;2023-03-01T01:53:51;36.40;;;17.03;;
5559;SDS011;2803;47.916;8.074;2023-03-01T01:56:21;42.60;;;18.57;;
5559;SDS011;2803;47.916;8.074;2023-03-01T01:58:51;38.20;;;19.07;;
5559;SDS011;2803;47.916;8.074;2023-03-01T02:01:20;38.10;;;19.47;;
5559;SDS011;2803;47.916;8.074;2023-03-01T02:03:47;37.07;;;16.77;;
5559;SDS011;2803;47.916;8.074;2023-03-01T02:06:17;34.90;;;18.87;;
5559;SDS011;2803;47.916;8.074;2023-03-01T02:08:46;37.43;;;17.40;;
5559;SDS011;2803;47.916;8.074;2023-03-01T02:11:17;38.87;;;18.60;;
5559;SDS011;2803;47.916;8.074;2023-03-01T02:13:44;36.70;;;18.87;;
5559;SDS011;2803;47.916;8.074;2023-03-01T02:16:13;35.50;;;18.53;;
5559;SDS011;2803;47.916;8.074;2023-03-01T02:18:43;35.33;;;17.30;;
5559;SDS011;2803;47.916;8.074;2023-03-01T02:21:13;41.37;;;20.00;;
5559;SDS011;2803;47.916;8.074;2023-03-01T02:23:51;39.70;;;19.30;;
5559;SDS011;2803;47.916;8.074;2023-03-01T02:26:21;33.93;;;18.20;;
5559;SDS011;2803;47.916;8.074;2023-03-01T02:28:57;36.77;;;18.80;;
5559;SDS011;2803;47.916;8.074;2023-03-01T02:31:24;36.90;;;19.30;;
5559;SDS011;2803;47.916;8.074;2023-03-01T02:34:05;31.27;;;16.80;;
5559;SDS011;2803;47.916;8.074;2023-03-01T02:36:35;38.93;;;18.90;;
5559;SDS011;2803;47.916;8.074;2023-03-01T02:39:04;35.40;;;18.03;;
5559;SDS011;2803;47.916;8.074;2023-03-01T02:41:39;36.47;;;18.67;;
5559;SDS011;2803;47.916;8.074;2023-03-01T02:44:10;34.07;;;18.13;;
5559;SDS011;2803;47.916;8.074;2023-03-01T02:46:42;34.30;;;17.50;;
5559;SDS011;2803;47.916;8.074;2023-03-01T02:49:19;32.33;;;17.27;;
5559;SDS011;2803;47.916;8.074;2023-03-01T02:51:52;32.03;;;17.83;;
5559;SDS011;2803;47.916;8.074;2023-03-01T02:54:36;36.00;;;18.43;;
5559;SDS011;2803;47.916;8.074;2023-03-01T02:57:08;45.53;;;19.63;;
5559;SDS011;2803;47.916;8.074;2023-03-01T02:59:37;33.07;;;17.77;;
5559;SDS011;2803;47.916;8.074;2023-03-01T03:02:05;35.97;;;18.00;;
5559;SDS011;2803;47.916;8.074;2023-03-01T03:04:34;33.70;;;18.00;;
5559;SDS011;2803;47.916;8.074;2023-03-01T03:07:00;39.13;;;18.30;;
5559;SDS011;2803;47.916;8.074;2023-03-01T03:09:27;40.10;;;18.63;;
5559;SDS011;2803;47.916;8.074;2023-03-01T03:11:54;40.37;;;17.77;;
5559;SDS011;2803;47.916;8.074;2023-03-01T03:14:21;36.70;;;19.50;;
5559;SDS011;2803;47.916;8.074;2023-03-01T03:16:50;37.90;;;17.73;;
5559;SDS011;2803;47.916;8.074;2023-03-01T03:19:17;38.93;;;18.90;;
5559;SDS011;2803;47.916;8.074;2023-03-01T03:21:45;34.27;;;17.40;;
5559;SDS011;2803;47.916;8.074;2023-03-01T03:24:12;33.87;;;17.57;;
5559;SDS011;2803;47.916;8.074;2023-03-01T03:26:40;35.50;;;18.60;;
5559;SDS011;2803;47.916;8.074;2023-03-01T03:29:07;34.33;;;17.33;;
5559;SDS011;2803;47.916;8.074;2023-03-01T03:31:33;32.87;;;17.77;;
5559;SDS011;2803;47.916;8.074;2023-03-01T03:34:02;39.57;;;18.90;;
5559;SDS011;2803;47.916;8.074;2023-03-01T03:36:28;40.23;;;18.20;;
5559;SDS011;2803;47.916;8.074;2023-03-01T03:38:55;37.43;;;17.17;;
5559;SDS011;2803;47.916;8.074;2023-03-01T03:41:22;34.10;;;17.20;;
5559;SDS011;2803;47.916;8.074;2023-03-01T03:43:49;33.00;;;16.77;;
5559;SDS011;2803;47.916;8.074;2023-03-01T03:46:15;37.40;;;17.50;;
5559;SDS011;2803;47.916;8.074;2023-03-01T03:48:42;39.13;;;17.50;;
5559;SDS011;2803;47.916;8.074;2023-03-01T03:51:12;32.17;;;16.50;;
5559;SDS011;2803;47.916;8.074;2023-03-01T03:53:41;40.97;;;18.63;;
5559;SDS011;2803;47.916;8.074;2023-03-01T03:56:08;40.33;;;19.60;;
5559;SDS011;2803;47.916;8.074;2023-03-01T03:58:35;34.07;;;17.47;;
5559;SDS011;2803;47.916;8.074;2023-03-01T04:01:03;42.60;;;19.07;;
5559;SDS011;2803;47.916;8.074;2023-03-01T04:03:30;41.20;;;20.37;;
5559;SDS011;2803;47.916;8.074;2023-03-01T04:05:58;37.47;;;18.13;;
5559;SDS011;2803;47.916;8.074;2023-03-01T04:08:27;33.70;;;16.53;;
5559;SDS011;2803;47.916;8.074;2023-03-01T04:10:56;38.23;;;18.87;;
5559;SDS011;2803;47.916;8.074;2023-03-01T04:13:25;32.87;;;16.53;;
5559;SDS011;2803;47.916;8.074;2023-03-01T04:15:52;37.53;;;18.60;;
5559;SDS011;2803;47.916;8.074;2023-03-01T04:18:20;35.77;;;17.90;;
5559;SDS011;2803;47.916;8.074;2023-03-01T04:20:49;38.03;;;17.63;;
5559;SDS011;2803;47.916;8.074;2023-03-01T04:23:21;36.40;;;18.00;;
5559;SDS011;2803;47.916;8.074;2023-03-01T04:25:49;36.80;;;17.97;;
5559;SDS011;2803;47.916;8.074;2023-03-01T04:28:20;43.10;;;19.57;;
5559;SDS011;2803;47.916;8.074;2023-03-01T04:30:49;33.67;;;16.67;;
5559;SDS011;2803;47.916;8.074;2023-03-01T04:33:16;40.20;;;19.10;;
5559;SDS011;2803;47.916;8.074;2023-03-01T04:35:44;37.93;;;17.50;;
5559;SDS011;2803;47.916;8.074;2023-03-01T04:38:14;45.23;;;20.03;;
5559;SDS011;2803;47.916;8.074;2023-03-01T04:40:41;38.87;;;18.20;;
5559;SDS011;2803;47.916;8.074;2023-03-01T04:43:09;36.07;;;18.13;;
5559;SDS011;2803;47.916;8.074;2023-03-01T04:45:37;38.23;;;17.50;;
5559;SDS011;2803;47.916;8.074;2023-03-01T04:48:04;38.23;;;18.77;;
5559;SDS011;2803;47.916;8.074;2023-03-01T04:50:32;50.10;;;20.63;;
5559;SDS011;2803;47.916;8.074;2023-03-01T04:52:59;36.90;;;19.10;;
5559;SDS011;2803;47.916;8.074;2023-03-01T04:55:26;39.77;;;18.70;;
5559;SDS011;2803;47.916;8.074;2023-03-01T04:57:54;39.97;;;19.57;;
5559;SDS011;2803;47.916;8.074;2023-03-01T05:00:23;43.40;;;20.90;;
5559;SDS011;2803;47.916;8.074;2023-03-01T05:02:50;39.67;;;18.70;;
5559;SDS011;2803;47.916;8.074;2023-03-01T05:05:21;40.93;;;18.70;;
5559;SDS011;2803;47.916;8.074;2023-03-01T05:07:51;40.80;;;18.70;;
5559;SDS011;2803;47.916;8.074;2023-03-01T05:10:20;43.13;;;20.87;;
5559;SDS011;2803;47.916;8.074;2023-03-01T05:12:47;43.43;;;19.93;;
5559;SDS011;2803;47.916;8.074;2023-03-01T05:15:13;45.67;;;20.70;;
5559;SDS011;2803;47.916;8.074;2023-03-01T05:17:42;40.03;;;20.30;;
5559;SDS011;2803;47.916;8.074;2023-03-01T05:20:11;37.37;;;18.43;;
5559;SDS011;2803;47.916;8.074;2023-03-01T05:22:38;44.10;;;18.50;;
5559;SDS011;2803;47.916;8.074;2023-03-01T05:25:05;40.57;;;18.00;;
5559;SDS011;2803;47.916;8.074;2023-03-01T05:27:33;42.60;;;20.30;;
5559;SDS011;2803;47.916;8.074;2023-03-01T05:30:00;42.93;;;19.53;;
5559;SDS011;2803;47.916;8.074;2023-03-01T05:32:38;50.27;;;19.53;;
5559;SDS011;2803;47.916;8.074;2023-03-01T05:35:09;39.00;;;19.23;;
5559;SDS011;2803;47.916;8.074;2023-03-01T05:37:40;40.60;;;18.33;;
5559;SDS011;2803;47.916;8.074;2023-03-01T05:40:09;44.67;;;18.93;;
5559;SDS011;2803;47.916;8.074;2023-03-01T05:42:41;42.47;;;18.97;;
5559;SDS011;2803;47.916;8.074;2023-03-01T05:45:09;41.73;;;18.50;;
5559;SDS011;2803;47.916;8.074;2023-03-01T05:47:37;39.67;;;18.80;;
5559;SDS011;2803;47.916;8.074;2023-03-01T05:50:06;44.33;;;19.70;;
5559;SDS011;2803;47.916;8.074;2023-03-01T05:52:33;42.43;;;19.00;;
5559;SDS011;2803;47.916;8.074;2023-03-01T05:55:00;44.00;;;20.20;;
5559;SDS011;2803;47.916;8.074;2023-03-01T05:57:27;42.57;;;19.60;;
5559;SDS011;2803;47.916;8.074;2023-03-01T05:59:54;43.50;;;19.80;;
5559;SDS011;2803;47.916;8.074;2023-03-01T06:02:21;38.33;;;18.83;;
5559;SDS011;2803;47.916;8.074;2023-03-01T06:04:48;41.27;;;19.20;;
5559;SDS011;2803;47.916;8.074;2023-03-01T06:07:16;38.90;;;18.53;;
5559;SDS011;2803;47.916;8.074;2023-03-01T06:09:43;38.10;;;18.70;;
5559;SDS011;2803;47.916;8.074;2023-03-01T06:12:11;45.53;;;19.70;;
5559;SDS011;2803;47.916;8.074;2023-03-01T06:14:38;45.10;;;19.93;;
5559;SDS011;2803;47.916;8.074;2023-03-01T06:17:05;56.87;;;22.10;;
5559;SDS011;2803;47.916;8.074;2023-03-01T06:19:32;40.73;;;17.90;;
5559;SDS011;2803;47.916;8.074;2023-03-01T06:22:00;37.77;;;17.77;;
5559;SDS011;2803;47.916;8.074;2023-03-01T06:24:28;41.30;;;19.40;;
5559;SDS011;2803;47.916;8.074;2023-03-01T06:26:54;38.23;;;18.67;;
5559;SDS011;2803;47.916;8.074;2023-03-01T06:29:21;40.97;;;18.93;;
5559;SDS011;2803;47.916;8.074;2023-03-01T06:31:48;41.10;;;20.30;;
5559;SDS011;2803;47.916;8.074;2023-03-01T06:34:15;46.47;;;18.50;;
5559;SDS011;2803;47.916;8.074;2023-03-01T06:36:42;41.57;;;19.50;;
5559;SDS011;2803;47.916;8.074;2023-03-01T06:39:09;39.90;;;19.00;;
5559;SDS011;2803;47.916;8.074;2023-03-01T06:41:37;43.93;;;19.90;;
5559;SDS011;2803;47.916;8.074;2023-03-01T06:44:03;44.50;;;19.13;;
5559;SDS011;2803;47.916;8.074;2023-03-01T06:46:30;42.93;;;20.10;;
5559;SDS011;2803;47.916;8.074;2023-03-01T06:48:57;40.00;;;17.90;;
5559;SDS011;2803;47.916;8.074;2023-03-01T06:51:25;39.27;;;19.37;;
5559;SDS011;2803;47.916;8.074;2023-03-01T06:53:53;40.93;;;18.93;;
5559;SDS011;2803;47.916;8.074;2023-03-01T06:56:19;40.50;;;18.10;;
5559;SDS011;2803;47.916;8.074;2023-03-01T06:58:47;38.03;;;18.53;;
5559;SDS011;2803;47.916;8.074;2023-03-01T07:01:14;40.83;;;18.17;;
5559;SDS011;2803;47.916;8.074;2023-03-01T07:03:41;45.50;;;19.50;;
5559;SDS011;2803;47.916;8.074;2023-03-01T07:06:09;44.47;;;18.30;;
5559;SDS011;2803;47.916;8.074;2023-03-01T07:08:35;38.63;;;18.03;;
5559;SDS011;2803;47.916;8.074;2023-03-01T07:11:02;42.40;;;19.23;;
5559;SDS011;2803;47.916;8.074;2023-03-01T07:13:29;41.07;;;19.17;;
5559;SDS011;2803;47.916;8.074;2023-03-01T07:15:57;45.10;;;18.50;;
5559;SDS011;2803;47.916;8.074;2023-03-01T07:18:24;38.93;;;19.97;;
5559;SDS011;2803;47.916;8.074;2023-03-01T07:20:50;35.70;;;17.47;;
5559;SDS011;2803;47.916;8.074;2023-03-01T07:23:17;35.43;;;18.60;;
5559;SDS011;2803;47.916;8.074;2023-03-01T07:25:44;40.73;;;18.47;;
5559;SDS011;2803;47.916;8.074;2023-03-01T07:28:17;41.73;;;18.67;;
5559;SDS011;2803;47.916;8.074;2023-03-01T07:30:44;38.10;;;18.57;;
5559;SDS011;2803;47.916;8.074;2023-03-01T07:33:13;42.47;;;18.30;;
5559;SDS011;2803;47.916;8.074;2023-03-01T07:35:40;44.90;;;20.87;;
5559;SDS011;2803;47.916;8.074;2023-03-01T07:38:09;45.23;;;19.70;;
5559;SDS011;2803;47.916;8.074;2023-03-01T07:40:36;40.90;;;19.73;;
5559;SDS011;2803;47.916;8.074;2023-03-01T07:43:03;39.10;;;18.33;;
5559;SDS011;2803;47.916;8.074;2023-03-01T07:45:30;46.53;;;20.40;;
5559;SDS011;2803;47.916;8.074;2023-03-01T07:47:56;44.63;;;20.60;;
5559;SDS011;2803;47.916;8.074;2023-03-01T07:50:25;40.40;;;19.50;;
5559;SDS011;2803;47.916;8.074;2023-03-01T07:52:51;40.00;;;17.63;;
5559;SDS011;2803;47.916;8.074;2023-03-01T07:55:18;42.40;;;18.00;;
5559;SDS011;2803;47.916;8.074;2023-03-01T07:57:45;36.50;;;18.37;;
5559;SDS011;2803;47.916;8.074;2023-03-01T08:00:12;42.23;;;19.50;;
5559;SDS011;2803;47.916;8.074;2023-03-01T08:02:39;41.97;;;20.77;;
5559;SDS011;2803;47.916;8.074;2023-03-01T08:05:07;39.33;;;18.10;;
5559;SDS011;2803;47.916;8.074;2023-03-01T08:07:36;41.10;;;19.27;;
5559;SDS011;2803;47.916;8.074;2023-03-01T08:10:02;41.13;;;17.87;;
5559;SDS011;2803;47.916;8.074;2023-03-01T08:12:29;39.60;;;18.33;;
5559;SDS011;2803;47.916;8.074;2023-03-01T08:14:56;38.23;;;18.30;;
5559;SDS011;2803;47.916;8.074;2023-03-01T08:17:23;40.10;;;16.87;;
5559;SDS011;2803;47.916;8.074;2023-03-01T08:19:49;37.00;;;17.17;;
5559;SDS011;2803;47.916;8.074;2023-03-01T08:22:16;36.60;;;17.13;;
5559;SDS011;2803;47.916;8.074;2023-03-01T08:24:44;38.60;;;19.17;;
5559;SDS011;2803;47.916;8.074;2023-03-01T08:27:12;39.80;;;18.70;;
5559;SDS011;2803;47.916;8.074;2023-03-01T08:29:41;35.70;;;16.93;;
5559;SDS011;2803;47.916;8.074;2023-03-01T08:32:08;34.53;;;17.67;;
5559;SDS011;2803;47.916;8.074;2023-03-01T08:34:34;41.87;;;20.57;;
5559;SDS011;2803;47.916;8.074;2023-03-01T08:37:03;33.87;;;16.93;;
5559;SDS011;2803;47.916;8.074;2023-03-01T08:39:30;41.57;;;19.90;;
5559;SDS011;2803;47.916;8.074;2023-03-01T08:41:59;40.00;;;19.47;;
5559;SDS011;2803;47.916;8.074;2023-03-01T08:44:26;49.67;;;19.43;;
5559;SDS011;2803;47.916;8.074;2023-03-01T08:46:56;43.30;;;19.60;;
5559;SDS011;2803;47.916;8.074;2023-03-01T08:49:25;44.73;;;19.47;;
5559;SDS011;2803;47.916;8.074;2023-03-01T08:51:53;35.47;;;17.90;;
5559;SDS011;2803;47.916;8.074;2023-03-01T08:54:24;38.03;;;17.10;;
5559;SDS011;2803;47.916;8.074;2023-03-01T08:56:52;43.87;;;19.70;;
5559;SDS011;2803;47.916;8.074;2023-03-01T08:59:21;35.50;;;19.10;;
5559;SDS011;2803;47.916;8.074;2023-03-01T09:01:50;42.30;;;18.83;;
5559;SDS011;2803;47.916;8.074;2023-03-01T09:04:19;37.97;;;18.77;;
5559;SDS011;2803;47.916;8.074;2023-03-01T09:06:46;39.03;;;16.73;;
5559;SDS011;2803;47.916;8.074;2023-03-01T09:09:14;33.87;;;16.17;;
5559;SDS011;2803;47.916;8.074;2023-03-01T09:11:44;41.13;;;18.20;;
5559;SDS011;2803;47.916;8.074;2023-03-01T09:14:11;43.60;;;18.80;;
5559;SDS011;2803;47.916;8.074;2023-03-01T09:16:42;35.33;;;17.80;;
5559;SDS011;2803;47.916;8.074;2023-03-01T09:19:10;38.57;;;16.87;;
5559;SDS011;2803;47.916;8.074;2023-03-01T09:21:37;46.63;;;17.60;;
5559;SDS011;2803;47.916;8.074;2023-03-01T09:24:04;39.20;;;17.20;;
5559;SDS011;2803;47.916;8.074;2023-03-01T09:26:31;38.00;;;17.80;;
5559;SDS011;2803;47.916;8.074;2023-03-01T09:28:58;36.10;;;17.33;;
5559;SDS011;2803;47.916;8.074;2023-03-01T09:31:26;36.03;;;17.63;;
5559;SDS011;2803;47.916;8.074;2023-03-01T09:33:54;37.57;;;17.80;;
5559;SDS011;2803;47.916;8.074;2023-03-01T09:36:24;39.00;;;18.47;;
5559;SDS011;2803;47.916;8.074;2023-03-01T09:38:53;33.23;;;16.13;;
5559;SDS011;2803;47.916;8.074;2023-03-01T09:44:10;30.77;;;16.00;;
5559;SDS011;2803;47.916;8.074;2023-03-01T09:46:48;41.23;;;17.80;;
5559;SDS011;2803;47.916;8.074;2023-03-01T09:49:17;38.30;;;18.23;;
5559;SDS011;2803;47.916;8.074;2023-03-01T09:51:54;37.53;;;16.67;;
5559;SDS011;2803;47.916;8.074;2023-03-01T09:54:24;37.37;;;17.00;;
5559;SDS011;2803;47.916;8.074;2023-03-01T09:56:53;39.57;;;17.67;;
5559;SDS011;2803;47.916;8.074;2023-03-01T09:59:33;42.73;;;18.40;;
5559;SDS011;2803;47.916;8.074;2023-03-01T10:02:16;39.10;;;17.33;;
5559;SDS011;2803;47.916;8.074;2023-03-01T10:04:53;38.30;;;18.80;;
5559;SDS011;2803;47.916;8.074;2023-03-01T10:07:27;41.63;;;17.90;;
5559;SDS011;2803;47.916;8.074;2023-03-01T10:10:04;40.30;;;18.43;;
5559;SDS011;2803;47.916;8.074;2023-03-01T10:12:33;37.23;;;17.70;;
5559;SDS011;2803;47.916;8.074;2023-03-01T10:15:04;38.40;;;17.17;;
5559;SDS011;2803;47.916;8.074;2023-03-01T10:17:37;33.97;;;16.57;;
5559;SDS011;2803;47.916;8.074;2023-03-01T10:20:20;37.17;;;18.50;;
5559;SDS011;2803;47.916;8.074;2023-03-01T10:22:49;36.97;;;17.97;;
5559;SDS011;2803;47.916;8.074;2023-03-01T10:25:21;35.47;;;17.30;;
5559;SDS011;2803;47.916;8.074;2023-03-01T10:27:59;38.00;;;19.07;;
5559;SDS011;2803;47.916;8.074;2023-03-01T10:30:34;43.07;;;19.70;;
5559;SDS011;2803;47.916;8.074;2023-03-01T10:33:05;37.13;;;17.20;;
5559;SDS011;2803;47.916;8.074;2023-03-01T10:35:42;38.60;;;16.80;;
5559;SDS011;2803;47.916;8.074;2023-03-01T10:38:09;41.03;;;17.40;;
5559;SDS011;2803;47.916;8.074;2023-03-01T10:40:50;39.73;;;17.67;;
5559;SDS011;2803;47.916;8.074;2023-03-01T10:43:19;35.80;;;17.80;;
5559;SDS011;2803;47.916;8.074;2023-03-01T10:45:46;38.70;;;17.63;;
5559;SDS011;2803;47.916;8.074;2023-03-01T10:48:14;35.60;;;17.80;;
5559;SDS011;2803;47.916;8.074;2023-03-01T10:50:46;37.67;;;17.80;;
5559;SDS011;2803;47.916;8.074;2023-03-01T10:53:22;40.23;;;18.53;;
5559;SDS011;2803;47.916;8.074;2023-03-01T10:55:59;38.37;;;17.57;;
5559;SDS011;2803;47.916;8.074;2023-03-01T10:58:28;36.53;;;16.77;;
5559;SDS011;2803;47.916;8.074;2023-03-01T11:00:56;34.57;;;17.43;;
5559;SDS011;2803;47.916;8.074;2023-03-01T11:03:26;37.33;;;16.90;;
5559;SDS011;2803;47.916;8.074;2023-03-01T11:05:58;35.20;;;17.87;;
5559;SDS011;2803;47.916;8.074;2023-03-01T11:08:29;44.90;;;18.53;;
5559;SDS011;2803;47.916;8.074;2023-03-01T11:11:05;35.00;;;17.47;;
5559;SDS011;2803;47.916;8.074;2023-03-01T11:13:39;35.47;;;17.23;;
5559;SDS011;2803;47.916;8.074;2023-03-01T11:16:22;32.63;;;17.00;;
5559;SDS011;2803;47.916;8.074;2023-03-01T11:18:55;37.23;;;17.40;;
5559;SDS011;2803;47.916;8.074;2023-03-01T11:21:25;31.03;;;15.53;;
5559;SDS011;2803;47.916;8.074;2023-03-01T11:23:54;36.33;;;15.70;;
5559;SDS011;2803;47.916;8.074;2023-03-01T11:26:23;44.90;;;16.53;;
5559;SDS011;2803;47.916;8.074;2023-03-01T11:28:50;34.53;;;16.27;;
5559;SDS011;2803;47.916;8.074;2023-03-01T11:31:21;31.03;;;15.77;;
5559;SDS011;2803;47.916;8.074;2023-03-01T11:33:52;34.07;;;16.37;;
5559;SDS011;2803;47.916;8.074;2023-03-01T11:36:25;34.17;;;16.27;;
5559;SDS011;2803;47.916;8.074;2023-03-01T11:38:57;35.23;;;15.93;;
5559;SDS011;2803;47.916;8.074;2023-03-01T11:41:36;35.70;;;15.10;;
5559;SDS011;2803;47.916;8.074;2023-03-01T11:44:10;36.83;;;16.17;;
5559;SDS011;2803;47.916;8.074;2023-03-01T11:46:48;36.07;;;16.90;;
5559;SDS011;2803;47.916;8.074;2023-03-01T11:49:33;31.17;;;15.90;;
5559;SDS011;2803;47.916;8.074;2023-03-01T11:52:16;36.30;;;16.40;;
5559;SDS011;2803;47.916;8.074;2023-03-01T11:54:54;33.00;;;16.10;;
5559;SDS011;2803;47.916;8.074;2023-03-01T11:57:38;32.50;;;17.37;;
5559;SDS011;2803;47.916;8.074;2023-03-01T12:00:17;32.00;;;15.63;;
5559;SDS011;2803;47.916;8.074;2023-03-01T12:02:57;29.83;;;16.40;;
5559;SDS011;2803;47.916;8.074;2023-03-01T12:08:35;33.30;;;16.27;;
5559;SDS011;2803;47.916;8.074;2023-03-01T12:11:14;33.90;;;16.57;;
5559;SDS011;2803;47.916;8.074;2023-03-01T12:13:54;32.63;;;16.20;;
5559;SDS011;2803;47.916;8.074;2023-03-01T12:16:40;31.73;;;16.33;;
5559;SDS011;2803;47.916;8.074;2023-03-01T12:19:30;27.17;;;14.47;;
5559;SDS011;2803;47.916;8.074;2023-03-01T12:22:11;36.47;;;16.57;;
5559;SDS011;2803;47.916;8.074;2023-03-01T12:24:54;33.33;;;16.37;;
5559;SDS011;2803;47.916;8.074;2023-03-01T12:27:45;35.30;;;17.03;;
5559;SDS011;2803;47.916;8.074;2023-03-01T12:30:27;35.60;;;16.20;;
5559;SDS011;2803;47.916;8.074;2023-03-01T12:33:11;29.57;;;14.43;;
5559;SDS011;2803;47.916;8.074;2023-03-01T12:35:50;31.27;;;15.90;;
5559;SDS011;2803;47.916;8.074;2023-03-01T12:38:32;29.17;;;15.20;;
5559;SDS011;2803;47.916;8.074;2023-03-01T12:41:21;35.40;;;16.17;;
5559;SDS011;2803;47.916;8.074;2023-03-01T12:44:10;33.03;;;15.23;;
5559;SDS011;2803;47.916;8.074;2023-03-01T12:46:50;32.07;;;16.17;;
5559;SDS011;2803;47.916;8.074;2023-03-01T12:49:29;35.13;;;16.20;;
5559;SDS011;2803;47.916;8.074;2023-03-01T12:52:03;33.23;;;15.90;;
5559;SDS011;2803;47.916;8.074;2023-03-01T12:54:40;31.40;;;14.80;;
5559;SDS011;2803;47.916;8.074;2023-03-01T12:57:14;32.23;;;16.00;;
5559;SDS011;2803;47.916;8.074;2023-03-01T12:59:51;34.30;;;15.70;;
5559;SDS011;2803;47.916;8.074;2023-03-01T13:02:36;33.20;;;15.13;;
5559;SDS011;2803;47.916;8.074;2023-03-01T13:05:17;31.60;;;15.73;;
5559;SDS011;2803;47.916;8.074;2023-03-01T13:07:52;30.80;;;16.00;;
5559;SDS011;2803;47.916;8.074;2023-03-01T13:10:26;29.57;;;16.20;;
5559;SDS011;2803;47.916;8.074;2023-03-01T13:13:08;31.37;;;16.00;;
5559;SDS011;2803;47.916;8.074;2023-03-01T13:15:39;30.90;;;14.90;;
5559;SDS011;2803;47.916;8.074;2023-03-01T13:21:01;33.30;;;15.53;;
5559;SDS011;2803;47.916;8.074;2023-03-01T13:23:31;31.70;;;15.30;;
5559;SDS011;2803;47.916;8.074;2023-03-01T13:26:03;27.73;;;15.40;;
5559;SDS011;2803;47.916;8.074;2023-03-01T13:28:39;30.10;;;16.70;;
5559;SDS011;2803;47.916;8.074;2023-03-01T13:31:07;37.53;;;16.27;;
5559;SDS011;2803;47.916;8.074;2023-03-01T13:33:39;36.40;;;16.30;;
5559;SDS011;2803;47.916;8.074;2023-03-01T13:36:08;35.10;;;16.00;;
5559;SDS011;2803;47.916;8.074;2023-03-01T13:38:41;31.77;;;16.50;;
5559;SDS011;2803;47.916;8.074;2023-03-01T13:41:14;38.23;;;16.50;;
5559;SDS011;2803;47.916;8.074;2023-03-01T13:43:46;32.90;;;17.90;;
5559;SDS011;2803;47.916;8.074;2023-03-01T13:46:16;37.30;;;16.80;;
5559;SDS011;2803;47.916;8.074;2023-03-01T13:48:47;32.67;;;15.73;;
5559;SDS011;2803;47.916;8.074;2023-03-01T13:51:20;34.00;;;15.10;;
5559;SDS011;2803;47.916;8.074;2023-03-01T13:53:51;33.23;;;16.13;;
5559;SDS011;2803;47.916;8.074;2023-03-01T13:56:20;29.50;;;16.37;;
5559;SDS011;2803;47.916;8.074;2023-03-01T13:58:52;27.17;;;16.03;;
5559;SDS011;2803;47.916;8.074;2023-03-01T14:01:25;33.10;;;16.10;;
5559;SDS011;2803;47.916;8.074;2023-03-01T14:03:54;32.23;;;15.60;;
5559;SDS011;2803;47.916;8.074;2023-03-01T14:06:23;29.67;;;15.87;;
5559;SDS011;2803;47.916;8.074;2023-03-01T14:09:00;27.87;;;15.30;;
5559;SDS011;2803;47.916;8.074;2023-03-01T14:14:27;36.07;;;17.03;;
5559;SDS011;2803;47.916;8.074;2023-03-01T14:17:08;31.23;;;15.97;;
5559;SDS011;2803;47.916;8.074;2023-03-01T14:19:45;38.70;;;17.60;;
5559;SDS011;2803;47.916;8.074;2023-03-01T14:22:16;32.80;;;17.00;;
5559;SDS011;2803;47.916;8.074;2023-03-01T14:24:47;30.70;;;16.10;;
5559;SDS011;2803;47.916;8.074;2023-03-01T14:27:17;34.77;;;16.70;;
5559;SDS011;2803;47.916;8.074;2023-03-01T14:29:55;32.47;;;15.77;;
5559;SDS011;2803;47.916;8.074;2023-03-01T14:32:24;30.57;;;15.80;;
5559;SDS011;2803;47.916;8.074;2023-03-01T14:34:53;31.13;;;17.17;;
5559;SDS011;2803;47.916;8.074;2023-03-01T14:37:21;30.60;;;15.40;;
5559;SDS011;2803;47.916;8.074;2023-03-01T14:39:51;35.40;;;17.07;;
5559;SDS011;2803;47.916;8.074;2023-03-01T14:42:18;30.13;;;16.87;;
5559;SDS011;2803;47.916;8.074;2023-03-01T14:44:49;28.03;;;15.07;;
5559;SDS011;2803;47.916;8.074;2023-03-01T14:47:27;33.53;;;15.07;;
5559;SDS011;2803;47.916;8.074;2023-03-01T14:49:58;29.83;;;16.50;;
5559;SDS011;2803;47.916;8.074;2023-03-01T14:52:31;28.30;;;15.10;;
5559;SDS011;2803;47.916;8.074;2023-03-01T14:55:02;31.23;;;16.10;;
5559;SDS011;2803;47.916;8.074;2023-03-01T14:57:33;28.43;;;14.70;;
5559;SDS011;2803;47.916;8.074;2023-03-01T15:00:02;32.87;;;16.43;;
5559;SDS011;2803;47.916;8.074;2023-03-01T15:02:35;33.00;;;15.70;;
5559;SDS011;2803;47.916;8.074;2023-03-01T15:05:05;27.50;;;14.50;;
5559;SDS011;2803;47.916;8.074;2023-03-01T15:07:35;27.03;;;14.40;;
5559;SDS011;2803;47.916;8.074;2023-03-01T15:10:11;28.00;;;15.13;;
5559;SDS011;2803;47.916;8.074;2023-03-01T15:12:46;36.73;;;15.47;;
5559;SDS011;2803;47.916;8.074;2023-03-01T15:15:20;28.30;;;14.80;;
5559;SDS011;2803;47.916;8.074;2023-03-01T15:17:58;32.00;;;15.63;;